Terminal Aerodrome Forecast
Issued by NWS

Home | Current Version | Previous Version | Text Only | Print | Product List | Glossary On
Versions: 1 2 3 4 5 6 7 8 9 10 11 12 13
585
FTUS41 KCAR 180523
TAFPQI
TAF
KPQI 180523Z 1806/1906 00000KT P6SM BKN200
     FM181500 18004KT P6SM BKN090
     FM190100 00000KT P6SM OVC030=

USA.gov is the U.S. government's official web portal to all federal, state and local government web resources and services.